Time;durP1;ratioP1;P1;durP2;ratioP2;P2;SDS_P1;SDS_P2;PMS_P1;PMS_P2;Temp;Humidity;BMP_temperature;BMP_pressure;BME280_temperature;BME280_humidity;BME280_pressure;Samples;Min_cycle;Max_cycle;Signal;HPM_P1;HPM_P2
2022/07/07 00:00:38;;;;;;;7.00;1.30;;;;;;;13.40;69.68;99307.66;4976431;28;20571;-49
2022/07/07 00:03:05;;;;;;;4.60;1.17;;;;;;;13.40;68.16;99305.03;4969695;28;20263;-49
2022/07/07 00:05:34;;;;;;;1.30;1.10;;;;;;;13.43;68.16;99306.53;4969932;28;20221;-49
2022/07/07 00:08:00;;;;;;;2.43;1.13;;;;;;;13.48;67.21;99306.09;4976567;28;20239;-50
2022/07/07 00:10:27;;;;;;;4.23;1.40;;;;;;;13.53;67.05;99301.22;4975222;28;20292;-49
2022/07/07 00:12:54;;;;;;;2.70;1.30;;;;;;;13.62;68.67;99304.72;4958526;28;20236;-49
2022/07/07 00:15:21;;;;;;;4.90;1.30;;;;;;;13.64;67.39;99300.13;4983839;28;20213;-49
2022/07/07 00:17:47;;;;;;;3.37;1.23;;;;;;;13.65;67.99;99297.38;4976940;28;20712;-49
2022/07/07 00:20:15;;;;;;;2.20;1.07;;;;;;;13.68;68.35;99297.06;4973971;28;20296;-49
2022/07/07 00:22:43;;;;;;;4.17;1.20;;;;;;;13.73;67.24;99291.34;4975497;28;20240;-49
2022/07/07 00:25:10;;;;;;;3.60;1.10;;;;;;;13.79;68.42;99293.34;4968927;28;20250;-50
2022/07/07 00:27:37;;;;;;;3.83;1.00;;;;;;;13.82;67.92;99290.41;4971018;28;20240;-49
2022/07/07 00:30:05;;;;;;;3.03;1.20;;;;;;;13.83;67.83;99281.56;4968972;28;20618;-50
2022/07/07 00:32:32;;;;;;;4.80;1.30;;;;;;;13.86;67.38;99283.88;4971845;28;20275;-49
2022/07/07 00:34:59;;;;;;;4.00;1.20;;;;;;;13.90;69.10;99280.94;4976182;28;20228;-50
2022/07/07 00:37:25;;;;;;;2.40;1.20;;;;;;;13.86;67.39;99275.16;4979878;28;20664;-49
2022/07/07 00:39:53;;;;;;;1.57;1.20;;;;;;;13.88;66.95;99268.81;4977081;28;20226;-49
2022/07/07 00:42:20;;;;;;;4.00;1.17;;;;;;;13.93;67.37;99268.31;4983524;28;20217;-49
2022/07/07 00:44:47;;;;;;;5.33;1.17;;;;;;;13.94;67.09;99267.34;4973494;28;20218;-49
2022/07/07 00:47:15;;;;;;;5.47;1.20;;;;;;;13.96;66.72;99256.69;4970910;28;20218;-51
2022/07/07 00:49:42;;;;;;;1.97;1.23;;;;;;;13.95;68.09;99255.84;4957642;28;20609;-49
2022/07/07 00:52:11;;;;;;;2.33;1.30;;;;;;;14.00;68.90;99256.22;4968609;28;20218;-49
2022/07/07 00:54:38;;;;;;;1.47;1.10;;;;;;;14.01;67.79;99255.22;4970935;28;20778;-49
2022/07/07 00:57:06;;;;;;;2.50;1.27;;;;;;;14.02;66.97;99251.63;4975667;28;20257;-49
2022/07/07 00:59:34;;;;;;;2.80;1.17;;;;;;;14.02;66.62;99251.63;4957568;28;20222;-50
2022/07/07 01:02:02;;;;;;;1.97;1.20;;;;;;;14.05;65.91;99254.91;4969215;28;20229;-49
2022/07/07 01:04:29;;;;;;;4.00;1.17;;;;;;;14.12;66.25;99254.16;4975522;28;20234;-49
2022/07/07 01:06:56;;;;;;;1.57;1.03;;;;;;;14.12;66.05;99254.16;4968001;28;20713;-50
2022/07/07 01:09:44;;;;;;;1.93;1.20;;;;;;;14.07;66.00;99258.22;4968339;28;20228;-49
2022/07/07 01:12:12;;;;;;;1.40;0.90;;;;;;;14.06;66.37;99246.06;4967906;28;20272;-49
2022/07/07 01:14:40;;;;;;;3.90;1.30;;;;;;;14.05;67.54;99249.66;4977509;28;20265;-49
2022/07/07 01:17:07;;;;;;;1.43;0.90;;;;;;;14.05;67.84;99247.88;4970927;28;20249;-49
2022/07/07 01:19:34;;;;;;;2.90;1.10;;;;;;;14.03;68.08;99247.22;4956289;28;20224;-49
2022/07/07 01:22:05;;;;;;;2.60;1.10;;;;;;;13.95;68.71;99249.81;4958413;28;20232;-49
2022/07/07 01:24:34;;;;;;;1.63;1.13;;;;;;;13.90;70.11;99249.44;4949614;28;20606;-49
2022/07/07 01:27:06;;;;;;;3.93;1.30;;;;;;;13.83;68.51;99246.63;4973625;28;20230;-49
2022/07/07 01:29:38;;;;;;;3.00;1.10;;;;;;;13.74;67.25;99237.91;4973411;28;20947;-53
2022/07/07 01:32:07;;;;;;;1.37;1.10;;;;;;;13.68;67.07;99233.28;4971198;28;20225;-49
2022/07/07 01:34:34;;;;;;;1.70;1.10;;;;;;;13.58;67.16;99228.16;4980081;28;20329;-51
2022/07/07 01:37:02;;;;;;;2.28;1.40;;;;;;;13.52;67.89;99216.47;4974510;28;20445;-49
2022/07/07 01:39:29;;;;;;;5.63;1.50;;;;;;;13.47;68.15;99231.84;4973708;28;20706;-49
2022/07/07 01:41:57;;;;;;;5.17;1.10;;;;;;;13.44;67.36;99232.16;4950461;28;20218;-50
2022/07/07 01:44:25;;;;;;;3.60;1.20;;;;;;;13.39;67.37;99232.59;4956144;28;20240;-50
2022/07/07 01:46:52;;;;;;;2.93;1.10;;;;;;;13.37;68.30;99233.69;4967900;28;20213;-49
2022/07/07 01:49:19;;;;;;;7.30;2.03;;;;;;;13.24;68.31;99221.00;4971010;28;20222;-50
2022/07/07 01:51:46;;;;;;;2.60;1.10;;;;;;;13.15;68.86;99222.75;4970864;28;20214;-49
2022/07/07 01:54:13;;;;;;;1.30;1.10;;;;;;;13.07;68.78;99214.84;4968355;28;20233;-50
2022/07/07 01:56:40;;;;;;;3.63;1.40;;;;;;;13.10;68.80;99210.09;4971506;28;20217;-49
2022/07/07 01:59:09;;;;;;;2.30;1.30;;;;;;;13.07;69.31;99220.09;4958677;28;20240;-49
2022/07/07 02:01:35;;;;;;;3.57;1.13;;;;;;;12.93;69.92;99224.88;4967602;28;20271;-49
2022/07/07 02:04:02;;;;;;;3.60;1.20;;;;;;;12.90;70.66;99233.03;4952293;28;20250;-49
2022/07/07 02:06:29;;;;;;;2.40;1.27;;;;;;;12.89;70.39;99235.81;4970078;28;20210;-50
2022/07/07 02:08:56;;;;;;;3.83;1.77;;;;;;;12.82;69.90;99235.59;4971215;28;20229;-49
2022/07/07 02:11:22;;;;;;;2.80;1.20;;;;;;;12.73;70.16;99239.91;4967672;28;20705;-49
2022/07/07 02:13:51;;;;;;;2.90;1.33;;;;;;;12.65;69.99;99239.88;4973041;28;20316;-50
2022/07/07 02:16:21;;;;;;;1.93;1.10;;;;;;;12.68;70.13;99244.81;4974168;28;20689;-49
2022/07/07 02:18:49;;;;;;;1.37;1.17;;;;;;;12.68;71.74;99236.94;4954832;28;20241;-49
2022/07/07 02:21:16;;;;;;;2.60;1.30;;;;;;;12.62;71.00;99242.78;4978798;28;20275;-49
2022/07/07 02:23:45;;;;;;;2.33;1.20;;;;;;;12.63;70.85;99253.09;4977789;28;20247;-52
2022/07/07 02:26:12;;;;;;;3.10;1.20;;;;;;;12.60;71.42;99247.34;4970257;28;20584;-49
2022/07/07 02:28:39;;;;;;;1.60;1.20;;;;;;;12.60;72.01;99249.97;4977373;28;20235;-50
2022/07/07 02:31:07;;;;;;;3.40;1.47;;;;;;;12.52;71.69;99255.94;4976087;28;20228;-49
2022/07/07 02:33:35;;;;;;;3.67;1.30;;;;;;;12.51;72.34;99254.28;4956210;28;20234;-49
2022/07/07 02:36:04;;;;;;;4.30;1.47;;;;;;;12.44;72.64;99253.22;4974041;28;20225;-49
2022/07/07 02:38:31;;;;;;;2.67;1.30;;;;;;;12.43;72.15;99249.78;4978208;28;20237;-49
2022/07/07 02:40:58;;;;;;;3.33;1.27;;;;;;;12.37;71.34;99243.34;4972619;28;20695;-49
2022/07/07 02:43:26;;;;;;;2.27;1.37;;;;;;;12.42;71.57;99240.28;4972844;28;20247;-49
2022/07/07 02:45:53;;;;;;;1.47;1.27;;;;;;;12.35;72.97;99236.63;4971387;28;20274;-49
2022/07/07 02:48:21;;;;;;;5.40;1.67;;;;;;;12.37;73.04;99247.75;4977618;28;20573;-49
2022/07/07 02:50:50;;;;;;;5.27;1.50;;;;;;;12.24;72.76;99243.69;4979108;28;20227;-50
2022/07/07 02:53:18;;;;;;;2.53;1.13;;;;;;;12.20;73.46;99246.75;4970062;28;20228;-50
2022/07/07 02:55:45;;;;;;;3.73;1.30;;;;;;;12.20;74.74;99250.19;4978984;28;20219;-49
2022/07/07 02:58:30;;;;;;;4.63;1.40;;;;;;;12.13;73.29;99240.47;4978961;28;20239;-49
2022/07/07 03:00:57;;;;;;;3.43;1.40;;;;;;;12.15;73.09;99241.97;4972537;28;20220;-49
2022/07/07 03:03:23;;;;;;;3.30;1.40;;;;;;;12.21;73.53;99251.84;4986229;28;20230;-49
2022/07/07 03:05:52;;;;;;;3.17;1.50;;;;;;;12.16;73.85;99235.75;4987962;28;20243;-52
2022/07/07 03:08:19;;;;;;;4.10;1.53;;;;;;;12.08;74.36;99230.41;4985439;28;20216;-49
2022/07/07 03:10:46;;;;;;;3.83;1.57;;;;;;;12.05;74.97;99221.09;4986984;28;20201;-50
2022/07/07 03:13:13;;;;;;;3.80;1.43;;;;;;;12.06;74.79;99216.66;4989838;28;20257;-50
2022/07/07 03:15:40;;;;;;;2.27;1.50;;;;;;;12.02;74.41;99216.13;4985509;28;20255;-50
2022/07/07 03:18:07;;;;;;;4.53;1.43;;;;;;;12.02;74.93;99221.38;4992292;28;20606;-49
2022/07/07 03:20:35;;;;;;;2.23;1.43;;;;;;;12.04;74.84;99223.84;4992806;28;20222;-50
2022/07/07 03:23:04;;;;;;;2.93;1.30;;;;;;;12.00;74.66;99220.69;4991316;28;20213;-50
2022/07/07 03:25:31;;;;;;;10.90;2.90;;;;;;;12.00;74.20;99223.31;4993188;28;20192;-51
2022/07/07 03:27:59;;;;;;;3.57;1.40;;;;;;;12.00;74.69;99219.84;4994931;28;20564;-51
2022/07/07 03:30:26;;;;;;;4.63;1.50;;;;;;;11.99;74.88;99213.78;4993260;28;20192;-50
2022/07/07 03:32:52;;;;;;;4.63;1.47;;;;;;;12.02;76.19;99210.91;4993577;28;20736;-51
2022/07/07 03:35:19;;;;;;;2.50;1.63;;;;;;;12.07;74.89;99215.69;4982250;28;20442;-50
2022/07/07 03:37:47;;;;;;;3.43;1.80;;;;;;;12.01;75.29;99219.72;4988275;28;20202;-50
2022/07/07 03:40:15;;;;;;;5.97;1.67;;;;;;;11.99;76.56;99218.19;4975825;28;20663;-50
2022/07/07 03:42:42;;;;;;;2.83;1.60;;;;;;;12.01;76.37;99211.88;4981423;28;20571;-50
2022/07/07 03:45:10;;;;;;;13.23;1.80;;;;;;;11.97;76.68;99215.72;4993904;28;20211;-50
2022/07/07 03:47:37;;;;;;;2.20;1.47;;;;;;;11.93;75.52;99214.34;4986919;28;20227;-51
2022/07/07 03:50:05;;;;;;;6.30;1.70;;;;;;;11.87;76.80;99209.72;4995093;28;20182;-51
2022/07/07 03:52:32;;;;;;;2.77;1.63;;;;;;;11.91;75.49;99211.06;4995090;28;20223;-50
2022/07/07 03:54:59;;;;;;;3.67;1.60;;;;;;;11.93;77.20;99204.69;4995366;28;20191;-51
2022/07/07 03:57:27;;;;;;;4.73;1.70;;;;;;;11.95;76.84;99202.78;4995280;28;20592;-50
2022/07/07 03:59:55;;;;;;;5.20;1.90;;;;;;;11.96;76.93;99201.00;4995201;28;20273;-50
2022/07/07 04:02:22;;;;;;;3.83;1.60;;;;;;;11.95;77.84;99196.72;4977302;28;20292;-51
2022/07/07 04:04:49;;;;;;;2.87;1.70;;;;;;;11.92;77.53;99194.41;4994864;28;20215;-50
2022/07/07 04:07:17;;;;;;;3.20;1.67;;;;;;;11.90;77.66;99194.53;4994821;28;20196;-52
2022/07/07 04:09:44;;;;;;;6.23;1.60;;;;;;;11.95;78.44;99194.91;4995108;28;20198;-51
2022/07/07 04:12:11;;;;;;;4.37;1.80;;;;;;;11.96;78.53;99198.38;4994755;28;20263;-51
2022/07/07 04:14:40;;;;;;;4.63;1.83;;;;;;;11.99;78.17;99192.84;4994874;28;20197;-50
2022/07/07 04:17:07;;;;;;;3.87;1.87;;;;;;;12.00;77.75;99197.16;4977325;28;20250;-51
2022/07/07 04:19:35;;;;;;;2.83;1.63;;;;;;;12.09;79.05;99204.13;4995159;28;20200;-50
2022/07/07 04:22:02;;;;;;;4.57;2.00;;;;;;;12.10;78.05;99197.09;4994491;28;20219;-50
2022/07/07 04:24:29;;;;;;;2.43;1.90;;;;;;;12.12;77.43;99202.19;4977296;28;20219;-50
2022/07/07 04:26:56;;;;;;;2.47;1.80;;;;;;;12.12;77.29;99192.53;4994712;28;20275;-50
2022/07/07 04:29:23;;;;;;;2.17;1.53;;;;;;;12.21;77.48;99198.66;4994687;28;20262;-50
2022/07/07 04:31:52;;;;;;;4.97;2.00;;;;;;;12.30;77.67;99189.91;4994631;28;20216;-52
2022/07/07 04:34:22;;;;;;;2.73;1.60;;;;;;;12.38;78.56;99187.38;4994500;28;20564;-50
2022/07/07 04:36:49;;;;;;;4.03;1.90;;;;;;;12.43;78.65;99197.44;4994612;28;20583;-50
2022/07/07 04:39:15;;;;;;;2.50;1.57;;;;;;;12.46;78.68;99194.50;4994460;28;20225;-50
2022/07/07 04:41:42;;;;;;;3.80;1.80;;;;;;;12.49;77.78;99201.25;4994293;28;20225;-50
2022/07/07 04:44:10;;;;;;;2.50;1.50;;;;;;;12.51;77.77;99200.13;4993982;28;20217;-50
2022/07/07 04:46:38;;;;;;;3.57;1.70;;;;;;;12.62;77.30;99199.06;4976909;28;20192;-50
2022/07/07 04:49:06;;;;;;;4.50;1.63;;;;;;;12.67;78.14;99198.63;4994427;28;20215;-50
2022/07/07 04:51:34;;;;;;;1.80;1.50;;;;;;;12.76;77.33;99202.13;4994323;28;20199;-50
2022/07/07 04:54:01;;;;;;;3.90;1.70;;;;;;;12.85;76.64;99201.25;4993933;28;20672;-51
2022/07/07 04:56:28;;;;;;;4.87;1.90;;;;;;;12.91;77.35;99213.72;4993589;28;20604;-50
2022/07/07 04:58:56;;;;;;;5.60;1.80;;;;;;;12.97;76.57;99209.66;4976632;28;20290;-50
2022/07/07 05:01:23;;;;;;;3.77;1.53;;;;;;;13.08;76.32;99212.06;4994369;28;20192;-50
2022/07/07 05:03:50;;;;;;;2.07;1.67;;;;;;;13.24;76.71;99216.59;4993810;28;20237;-51
2022/07/07 05:06:19;;;;;;;2.23;1.57;;;;;;;13.43;75.47;99209.53;4994136;28;20185;-51
2022/07/07 05:08:46;;;;;;;3.00;1.70;;;;;;;13.66;75.18;99207.22;4993873;28;20193;-51
2022/07/07 05:11:13;;;;;;;3.60;1.60;;;;;;;13.90;75.14;99205.66;4993958;28;20839;-50
2022/07/07 05:13:40;;;;;;;7.20;1.50;;;;;;;14.21;72.46;99201.66;4993767;28;20209;-50
2022/07/07 05:16:08;;;;;;;4.17;1.30;;;;;;;14.51;70.61;99212.53;4994063;28;20182;-50
2022/07/07 05:18:35;;;;;;;1.73;1.40;;;;;;;14.88;70.44;99201.59;4993865;28;20279;-51
2022/07/07 05:21:03;;;;;;;4.93;1.67;;;;;;;15.19;69.33;99203.53;4976276;28;20229;-51
2022/07/07 05:23:31;;;;;;;3.10;1.47;;;;;;;15.54;68.06;99200.66;4993384;28;20693;-50
2022/07/07 05:25:59;;;;;;;4.70;1.70;;;;;;;15.72;66.98;99199.63;4993782;28;20188;-51
2022/07/07 05:28:26;;;;;;;1.80;1.50;;;;;;;15.95;66.74;99202.38;4993782;28;20200;-50
2022/07/07 05:30:54;;;;;;;1.67;1.30;;;;;;;16.24;65.74;99203.53;4993805;28;20186;-50
2022/07/07 05:33:21;;;;;;;4.23;1.60;;;;;;;16.53;66.01;99209.97;4993400;28;20214;-51
2022/07/07 05:35:48;;;;;;;4.30;1.40;;;;;;;16.80;63.84;99211.22;4993412;28;20554;-51
2022/07/07 05:38:15;;;;;;;2.70;1.30;;;;;;;17.09;64.04;99207.06;4993449;28;20718;-51
2022/07/07 05:40:43;;;;;;;2.97;1.20;;;;;;;17.39;61.95;99216.84;4993539;28;20192;-52
2022/07/07 05:43:11;;;;;;;4.53;1.67;;;;;;;17.61;62.38;99216.94;4993241;28;20286;-50
2022/07/07 05:45:38;;;;;;;2.43;1.50;;;;;;;17.83;58.58;99208.13;4993422;28;20208;-50
2022/07/07 05:48:06;;;;;;;3.73;1.37;;;;;;;18.05;56.72;99212.66;4993423;28;20189;-52
2022/07/07 05:50:33;;;;;;;2.07;1.13;;;;;;;18.13;54.99;99215.19;4991026;28;20200;-51
2022/07/07 05:53:01;;;;;;;6.37;1.53;;;;;;;18.07;52.46;99218.56;4992745;28;20217;-52
2022/07/07 05:55:28;;;;;;;3.13;1.33;;;;;;;18.06;53.70;99228.31;4993097;28;20203;-51
2022/07/07 05:57:57;;;;;;;3.27;1.37;;;;;;;17.87;54.64;99226.22;4984527;28;20656;-52
2022/07/07 06:00:25;;;;;;;2.93;1.40;;;;;;;18.01;53.42;99225.44;4973939;28;20193;-52
2022/07/07 06:02:52;;;;;;;2.03;1.30;;;;;;;17.98;54.71;99233.69;4973327;28;20216;-51
2022/07/07 06:05:20;;;;;;;3.33;1.60;;;;;;;18.05;53.80;99229.31;4973753;28;20214;-51
2022/07/07 06:07:48;;;;;;;3.47;1.40;;;;;;;17.94;53.24;99230.59;4973463;28;20187;-51
2022/07/07 06:10:15;;;;;;;3.53;1.50;;;;;;;17.92;52.34;99235.22;4973654;28;20240;-50
2022/07/07 06:12:43;;;;;;;2.83;1.60;;;;;;;18.01;52.57;99241.28;4973407;28;20215;-51
2022/07/07 06:15:12;;;;;;;2.67;1.40;;;;;;;18.10;51.09;99239.34;4973658;28;20249;-51
2022/07/07 06:17:39;;;;;;;6.20;1.20;;;;;;;18.26;50.91;99233.00;4973688;28;20247;-52
2022/07/07 06:20:08;;;;;;;3.70;1.60;;;;;;;18.32;50.60;99226.19;4973469;28;20203;-51
2022/07/07 06:22:35;;;;;;;4.67;1.40;;;;;;;18.46;53.02;99225.31;4973259;28;20282;-50
2022/07/07 06:25:02;;;;;;;2.50;1.40;;;;;;;18.61;53.53;99232.34;4973480;28;20228;-52
2022/07/07 06:27:30;;;;;;;2.73;1.30;;;;;;;18.66;52.97;99225.50;4973529;28;20200;-51
2022/07/07 06:29:57;;;;;;;2.93;1.47;;;;;;;18.78;53.21;99232.94;4973247;28;20196;-51
2022/07/07 06:32:26;;;;;;;2.67;1.67;;;;;;;18.71;54.15;99225.75;4973160;28;20202;-51
2022/07/07 06:34:53;;;;;;;5.43;2.20;;;;;;;18.86;53.82;99233.63;4973392;28;20553;-50
2022/07/07 06:37:20;;;;;;;2.97;1.40;;;;;;;18.70;54.77;99229.41;4973494;28;20596;-51
2022/07/07 06:39:47;;;;;;;6.87;1.60;;;;;;;18.77;55.09;99236.59;4973250;28;20197;-50
2022/07/07 06:42:15;;;;;;;2.30;1.37;;;;;;;18.74;53.77;99235.97;4973135;28;20710;-50
2022/07/07 06:44:44;;;;;;;3.83;1.43;;;;;;;18.56;51.84;99235.56;4955760;28;20229;-51
2022/07/07 06:47:11;;;;;;;5.40;1.83;;;;;;;18.63;52.98;99246.19;4955845;28;20205;-51
2022/07/07 06:49:40;;;;;;;4.07;1.70;;;;;;;18.64;52.89;99240.75;4973389;28;20660;-51
2022/07/07 06:52:08;;;;;;;4.27;1.40;;;;;;;18.65;53.38;99245.03;4955530;28;20573;-50
2022/07/07 06:54:35;;;;;;;4.47;1.40;;;;;;;18.68;52.05;99239.34;4973339;28;20376;-51
2022/07/07 06:57:02;;;;;;;2.80;1.30;;;;;;;18.69;51.62;99240.16;4973245;28;20187;-51
2022/07/07 06:59:29;;;;;;;6.33;1.43;;;;;;;18.54;51.29;99243.72;4973327;28;20250;-51
2022/07/07 07:01:57;;;;;;;6.20;1.70;;;;;;;18.55;51.13;99253.25;4973022;28;20676;-51
2022/07/07 07:04:24;;;;;;;4.47;1.50;;;;;;;18.50;52.15;99239.81;4972930;28;20206;-51
2022/07/07 07:06:52;;;;;;;3.63;1.50;;;;;;;18.50;50.95;99242.44;4973176;28;20205;-53
2022/07/07 07:09:20;;;;;;;4.67;1.47;;;;;;;18.49;51.16;99230.22;4973253;28;20221;-53
2022/07/07 07:11:48;;;;;;;3.83;1.60;;;;;;;18.41;51.36;99240.91;4973249;28;20193;-51
2022/07/07 07:14:14;;;;;;;3.80;1.40;;;;;;;18.35;51.20;99239.03;4973127;28;20202;-50
2022/07/07 07:16:42;;;;;;;4.57;1.70;;;;;;;18.47;51.30;99228.75;4973124;28;20198;-51
2022/07/07 07:19:09;;;;;;;3.63;1.50;;;;;;;18.51;50.59;99248.53;4973587;28;20191;-51
2022/07/07 07:21:36;;;;;;;3.70;1.53;;;;;;;18.71;52.12;99238.97;4980258;28;20280;-51
2022/07/07 07:24:04;;;;;;;6.40;1.50;;;;;;;18.86;51.16;99236.25;4993251;28;20217;-51
2022/07/07 07:26:32;;;;;;;9.23;1.57;;;;;;;18.93;50.51;99246.91;4987784;28;20217;-51
2022/07/07 07:29:00;;;;;;;3.20;1.43;;;;;;;19.04;49.89;99248.25;4985769;28;20272;-51
2022/07/07 07:31:26;;;;;;;3.93;1.93;;;;;;;19.05;51.05;99254.38;4985952;28;20258;-50
2022/07/07 07:33:54;;;;;;;3.03;1.60;;;;;;;19.06;50.55;99262.09;4990285;28;20735;-50
2022/07/07 07:36:21;;;;;;;3.90;1.70;;;;;;;18.90;50.78;99273.75;4993904;28;20928;-50
2022/07/07 07:39:08;;;;;;;3.13;1.30;;;;;;;18.84;51.29;99256.78;4994851;28;20221;-50
2022/07/07 07:41:36;;;;;;;4.43;2.03;;;;;;;18.74;51.57;99261.56;4994909;28;20277;-50
2022/07/07 07:44:03;;;;;;;2.63;1.30;;;;;;;18.67;51.29;99271.25;4994475;28;20748;-50
2022/07/07 07:46:30;;;;;;;5.83;1.60;;;;;;;18.55;52.36;99268.31;4995005;28;20214;-53
2022/07/07 07:48:58;;;;;;;2.80;1.63;;;;;;;18.44;50.76;99270.44;4994784;28;20190;-51
2022/07/07 07:51:25;;;;;;;4.50;1.70;;;;;;;18.42;51.35;99277.72;4994862;28;20196;-51
2022/07/07 07:53:52;;;;;;;3.43;1.70;;;;;;;18.43;52.85;99283.84;4976834;28;20621;-49
2022/07/07 07:56:20;;;;;;;3.83;1.70;;;;;;;18.41;52.79;99289.31;4994930;28;20192;-50
2022/07/07 07:58:47;;;;;;;5.13;1.87;;;;;;;18.37;51.47;99277.47;4994694;28;20208;-49
2022/07/07 08:01:15;;;;;;;4.40;1.40;;;;;;;18.49;50.57;99288.38;4994439;28;20565;-53
2022/07/07 08:03:42;;;;;;;5.17;1.83;;;;;;;18.48;52.44;99291.19;4994445;28;20220;-50
2022/07/07 08:06:09;;;;;;;6.43;2.20;;;;;;;18.50;51.84;99281.25;4994701;28;20815;-49
2022/07/07 08:08:54;;;;;;;2.97;1.40;;;;;;;18.54;51.85;99280.72;4992572;28;20206;-52
2022/07/07 08:11:23;;;;;;;3.07;1.40;;;;;;;18.54;51.31;99282.53;4994397;28;20198;-49
2022/07/07 08:13:50;;;;;;;5.13;1.80;;;;;;;18.69;51.56;99283.31;4994172;28;20210;-50
2022/07/07 08:16:17;;;;;;;4.53;1.83;;;;;;;18.76;52.02;99286.00;4992196;28;20616;-50
2022/07/07 08:18:44;;;;;;;3.40;1.50;;;;;;;18.93;51.09;99283.94;4976688;28;20202;-51
2022/07/07 08:21:11;;;;;;;4.00;1.57;;;;;;;19.05;51.59;99283.47;4994249;28;20284;-50
2022/07/07 08:23:38;;;;;;;5.60;1.73;;;;;;;19.04;50.69;99272.06;4976541;28;20874;-50
2022/07/07 08:26:06;;;;;;;5.17;1.60;;;;;;;19.18;49.63;99284.41;4994125;28;20215;-50
2022/07/07 08:28:34;;;;;;;5.30;2.07;;;;;;;19.26;51.06;99275.50;4994107;28;20206;-50
2022/07/07 08:31:02;;;;;;;4.13;2.00;;;;;;;19.57;49.87;99271.66;4993965;28;20272;-50
2022/07/07 08:33:29;;;;;;;5.47;2.20;;;;;;;19.53;49.16;99278.34;4993705;28;20223;-50
2022/07/07 08:35:56;;;;;;;2.80;2.03;;;;;;;20.13;49.18;99283.19;4994044;28;20286;-50
2022/07/07 08:38:24;;;;;;;5.50;2.13;;;;;;;20.48;48.46;99277.81;4993941;28;20206;-50
2022/07/07 08:40:51;;;;;;;9.00;2.40;;;;;;;20.78;48.51;99277.50;4994006;28;20282;-53
2022/07/07 08:43:20;;;;;;;2.90;1.80;;;;;;;21.34;46.12;99278.13;4993822;28;20242;-50
2022/07/07 08:45:50;;;;;;;5.70;2.40;;;;;;;20.93;47.76;99272.00;4990508;28;20302;-50
2022/07/07 08:48:18;;;;;;;6.40;2.73;;;;;;;21.34;48.00;99280.78;4982220;28;20660;-50
2022/07/07 08:50:45;;;;;;;5.53;2.40;;;;;;;21.42;47.51;99279.78;4982185;28;20197;-50
2022/07/07 08:53:13;;;;;;;10.07;2.40;;;;;;;21.44;47.48;99292.84;4974089;28;20270;-50
2022/07/07 08:55:42;;;;;;;46.23;7.17;;;;;;;20.58;49.60;99296.00;4974483;28;20667;-50
2022/07/07 08:58:10;;;;;;;10.37;2.73;;;;;;;20.26;50.39;99287.72;4974477;28;20601;-50
2022/07/07 09:00:38;;;;;;;6.77;2.87;;;;;;;20.30;49.99;99301.41;4974453;28;20577;-50
2022/07/07 09:03:07;;;;;;;4.90;2.27;;;;;;;19.57;52.37;99298.13;4974247;28;20204;-51
2022/07/07 09:05:37;;;;;;;4.87;2.00;;;;;;;19.71;52.96;99303.53;4974454;28;20268;-51
2022/07/07 09:08:16;;;;;;;5.30;2.10;;;;;;;19.66;51.26;99303.28;4956306;28;20713;-51
2022/07/07 09:10:44;;;;;;;4.67;2.47;;;;;;;19.49;52.26;99292.16;4973301;28;20192;-50
2022/07/07 09:13:21;;;;;;;4.47;1.90;;;;;;;19.33;53.13;99281.66;4973039;28;20689;-50
2022/07/07 09:15:49;;;;;;;4.27;2.50;;;;;;;19.49;52.71;99277.09;4973260;28;20554;-50
2022/07/07 09:18:33;;;;;;;4.77;2.53;;;;;;;19.55;53.43;99268.38;4973198;28;20185;-51
2022/07/07 09:21:02;;;;;;;4.87;1.90;;;;;;;19.75;52.36;99265.84;4956102;28;20564;-50
2022/07/07 09:23:29;;;;;;;4.30;2.17;;;;;;;19.95;52.32;99262.50;4973123;28;20203;-51
2022/07/07 09:25:57;;;;;;;4.30;1.90;;;;;;;20.56;51.11;99252.13;4974171;28;20214;-51
2022/07/07 09:28:26;;;;;;;4.17;2.10;;;;;;;20.84;50.22;99253.84;4974520;28;20274;-49
2022/07/07 09:30:55;;;;;;;2.60;1.60;;;;;;;21.32;49.13;99247.50;4973981;28;20224;-50
2022/07/07 09:33:24;;;;;;;9.43;2.23;;;;;;;21.14;48.72;99246.28;4973563;28;20654;-49
2022/07/07 09:38:42;;;;;;;3.47;1.97;;;;;;;21.62;47.64;99258.50;4973541;28;20563;-51
2022/07/07 09:41:12;;;;;;;4.50;1.90;;;;;;;22.39;46.71;99255.16;4973245;28;20663;-49
2022/07/07 09:43:47;;;;;;;4.10;1.80;;;;;;;22.82;45.44;99255.53;4973406;28;20572;-50
2022/07/07 09:46:17;;;;;;;7.73;2.10;;;;;;;23.10;44.89;99262.28;4973733;28;20214;-49
2022/07/07 09:48:46;;;;;;;4.87;1.77;;;;;;;22.83;45.38;99275.78;4973630;28;20667;-50
2022/07/07 09:51:20;;;;;;;5.37;2.23;;;;;;;23.32;43.95;99281.38;4973588;28;20593;-50
2022/07/07 09:54:00;;;;;;;6.50;1.87;;;;;;;23.58;43.95;99291.00;4973242;28;20201;-49
2022/07/07 09:56:30;;;;;;;8.57;2.07;;;;;;;23.18;44.36;99288.66;4973497;28;20190;-50
2022/07/07 09:58:58;;;;;;;16.47;3.17;;;;;;;23.35;44.16;99280.16;4973430;28;20562;-50
2022/07/07 10:01:27;;;;;;;5.77;2.27;;;;;;;23.07;45.03;99287.50;4973416;28;20189;-50
2022/07/07 10:03:57;;;;;;;15.03;2.30;;;;;;;22.38;45.96;99292.59;4972906;28;20219;-49
2022/07/07 10:06:27;;;;;;;4.40;2.00;;;;;;;22.16;45.87;99276.97;4973026;28;20292;-48
2022/07/07 10:08:58;;;;;;;3.47;1.93;;;;;;;22.22;45.80;99278.78;4973071;28;20192;-52
2022/07/07 10:11:35;;;;;;;3.70;2.07;;;;;;;22.14;46.29;99276.38;4955821;28;20241;-50
2022/07/07 10:14:14;;;;;;;5.37;1.90;;;;;;;22.75;45.24;99279.53;4972928;28;20233;-50
2022/07/07 10:16:42;;;;;;;7.40;1.80;;;;;;;23.07;44.62;99281.34;4973718;28;20195;-50
2022/07/07 10:19:28;;;;;;;2.77;1.67;;;;;;;22.88;45.19;99283.94;4973975;28;20291;-49
2022/07/07 10:22:00;;;;;;;2.00;1.70;;;;;;;23.65;43.96;99279.47;4972999;28;20278;-50
2022/07/07 10:24:31;;;;;;;3.03;1.53;;;;;;;24.05;43.21;99271.03;4973212;28;20237;-49
2022/07/07 10:26:59;;;;;;;3.07;1.60;;;;;;;23.31;43.67;99261.13;4973240;28;20205;-49
2022/07/07 10:29:41;;;;;;;3.83;1.67;;;;;;;24.39;43.01;99270.59;4972865;28;20245;-50
2022/07/07 10:32:09;;;;;;;3.17;1.50;;;;;;;24.45;42.40;99278.53;4972977;28;20315;-49
2022/07/07 10:34:38;;;;;;;6.33;2.07;;;;;;;24.74;40.75;99275.28;4973260;28;20190;-50
2022/07/07 10:37:09;;;;;;;3.77;1.90;;;;;;;24.88;40.31;99281.25;4973297;28;20178;-49
2022/07/07 10:39:57;;;;;;;2.93;2.13;;;;;;;24.08;43.28;99275.91;4973113;28;20208;-52
2022/07/07 10:42:50;;;;;;;7.07;1.93;;;;;;;23.51;43.20;99282.25;4955396;28;20219;-49
2022/07/07 10:45:18;;;;;;;5.13;1.97;;;;;;;23.77;43.54;99280.34;4973051;28;20281;-49
2022/07/07 10:47:46;;;;;;;9.77;2.07;;;;;;;22.77;44.57;99274.81;4973015;28;20199;-49
2022/07/07 10:50:25;;;;;;;4.50;1.63;;;;;;;23.57;44.10;99275.22;4955698;28;20283;-49
2022/07/07 10:52:55;;;;;;;7.07;2.30;;;;;;;23.57;43.20;99286.69;4972779;28;20210;-48
2022/07/07 10:55:42;;;;;;;4.67;1.73;;;;;;;23.64;44.19;99286.63;4976182;28;20193;-49
2022/07/07 10:58:09;;;;;;;7.80;2.07;;;;;;;23.25;45.00;99270.00;4976585;28;20666;-49
2022/07/07 11:00:37;;;;;;;4.30;1.80;;;;;;;23.14;46.10;99279.47;4959421;28;20207;-49
2022/07/07 11:03:10;;;;;;;4.63;2.17;;;;;;;23.31;44.30;99281.59;4976361;28;20236;-49
2022/07/07 11:05:43;;;;;;;3.47;1.97;;;;;;;23.73;43.82;99285.31;4976676;28;20193;-49
2022/07/07 11:08:14;;;;;;;2.80;1.97;;;;;;;23.52;44.16;99283.88;4976594;28;20195;-49
2022/07/07 11:10:55;;;;;;;6.87;1.80;;;;;;;23.35;45.29;99288.94;4976552;28;20282;-49
2022/07/07 11:13:34;;;;;;;9.17;2.50;;;;;;;23.02;46.26;99289.19;4976126;28;20206;-50
2022/07/07 11:16:14;;;;;;;6.27;2.37;;;;;;;22.51;47.24;99286.44;4976438;28;20236;-49
2022/07/07 11:18:42;;;;;;;6.60;2.00;;;;;;;22.08;48.22;99285.19;4976697;28;20190;-51
2022/07/07 11:21:10;;;;;;;5.37;2.13;;;;;;;21.64;50.29;99288.34;4976353;28;20575;-50
2022/07/07 11:24:02;;;;;;;4.20;2.23;;;;;;;21.29;51.12;99293.06;4975903;28;20220;-49
2022/07/07 11:26:29;;;;;;;5.73;2.20;;;;;;;21.06;51.60;99288.97;4954479;28;20236;-49
2022/07/07 11:28:58;;;;;;;5.63;2.17;;;;;;;20.98;51.74;99289.97;4976290;28;20187;-49
2022/07/07 11:31:44;;;;;;;7.60;2.27;;;;;;;20.82;52.84;99293.03;4976328;28;20213;-49
2022/07/07 11:34:12;;;;;;;6.03;2.50;;;;;;;20.81;53.69;99294.03;4975726;28;20308;-50
2022/07/07 11:36:39;;;;;;;6.23;2.30;;;;;;;20.60;56.57;99299.28;4976140;28;20183;-50
2022/07/07 11:39:08;;;;;;;3.63;2.40;;;;;;;20.49;55.47;99295.34;4975935;28;20203;-50
2022/07/07 11:41:40;;;;;;;7.77;2.60;;;;;;;20.75;56.44;99295.63;4975924;28;20196;-50
2022/07/07 11:44:08;;;;;;;5.87;3.00;;;;;;;21.07;55.48;99295.91;4975572;28;20298;-50